createdAt,value
2018-08-09T00:00:02.961Z,51.57
2018-08-09T00:02:31.033Z,51.81
2018-08-09T00:04:59.096Z,52.44
2018-08-09T00:07:27.182Z,52.55
2018-08-09T00:09:55.239Z,52.17
2018-08-09T00:12:23.316Z,53.08
2018-08-09T00:14:51.372Z,52.52
2018-08-09T00:17:19.440Z,53.18
2018-08-09T00:19:47.481Z,52.91
2018-08-09T00:22:15.556Z,52.82
2018-08-09T00:24:43.640Z,53.07
2018-08-09T00:27:11.711Z,53.43
2018-08-09T00:29:39.748Z,52.58
2018-08-09T00:32:07.796Z,53.30
2018-08-09T00:34:35.847Z,52.84
2018-08-09T00:37:03.900Z,52.71
2018-08-09T00:39:31.956Z,53.01
2018-08-09T00:42:00.021Z,52.60
2018-08-09T00:44:28.079Z,52.67
2018-08-09T00:46:56.144Z,53.11
2018-08-09T00:49:24.201Z,53.34
2018-08-09T00:51:52.296Z,53.04
2018-08-09T00:54:20.347Z,53.19
2018-08-09T00:56:48.400Z,53.25
2018-08-09T00:59:16.444Z,53.03
2018-08-09T01:01:44.501Z,53.16
2018-08-09T01:04:12.544Z,53.17
2018-08-09T01:06:40.623Z,53.58
2018-08-09T01:09:09.510Z,53.37
2018-08-09T01:11:38.516Z,53.45
2018-08-09T01:14:06.609Z,53.58
2018-08-09T01:16:34.673Z,53.91
2018-08-09T01:19:02.704Z,53.68
2018-08-09T01:21:30.750Z,53.95
2018-08-09T01:23:58.813Z,53.97
2018-08-09T01:26:26.860Z,53.92
2018-08-09T01:28:54.932Z,53.89
2018-08-09T01:31:33.417Z,53.87
2018-08-09T01:34:02.431Z,53.68
2018-08-09T01:36:30.591Z,53.69
2018-08-09T01:38:58.784Z,53.90
2018-08-09T01:41:27.052Z,53.63
2018-08-09T01:43:58.284Z,53.77
2018-08-09T01:46:26.750Z,53.87
2018-08-09T01:48:55.424Z,53.62
2018-08-09T01:51:23.714Z,53.61
2018-08-09T01:53:52.389Z,53.76
2018-08-09T01:56:20.443Z,53.50
2018-08-09T01:58:49.148Z,53.63
2018-08-09T02:01:17.425Z,53.28
2018-08-09T02:03:45.800Z,53.49
2018-08-09T02:06:14.900Z,53.42
2018-08-09T02:08:43.004Z,53.31
2018-08-09T02:11:17.852Z,53.71
2018-08-09T02:13:45.884Z,53.74
2018-08-09T02:16:13.956Z,53.71
2018-08-09T02:18:42.028Z,53.98
2018-08-09T02:21:10.784Z,53.77
2018-08-09T02:23:38.841Z,54.00
2018-08-09T02:26:06.897Z,54.03
2018-08-09T02:28:34.958Z,54.34
2018-08-09T02:31:03.012Z,54.40
2018-08-09T02:33:31.073Z,54.51
2018-08-09T02:35:59.124Z,54.59
2018-08-09T02:38:27.196Z,54.52
2018-08-09T02:40:55.258Z,54.50
2018-08-09T02:43:23.324Z,54.60
2018-08-09T02:45:51.363Z,54.79
2018-08-09T02:48:19.458Z,54.66
2018-08-09T02:50:47.509Z,54.93
2018-08-09T02:53:15.611Z,54.56
2018-08-09T02:55:43.667Z,54.59
2018-08-09T02:58:11.716Z,54.62
2018-08-09T03:00:39.791Z,54.49
2018-08-09T03:03:07.857Z,54.44
2018-08-09T03:05:35.913Z,54.24
2018-08-09T03:08:03.977Z,54.22
2018-08-09T03:10:32.016Z,54.39
2018-08-09T03:13:00.080Z,54.27
2018-08-09T03:15:28.139Z,54.37
2018-08-09T03:17:56.187Z,54.18
2018-08-09T03:20:24.226Z,54.42
2018-08-09T03:22:52.270Z,54.21
2018-08-09T03:25:20.317Z,54.34
2018-08-09T03:27:48.391Z,54.35
2018-08-09T03:30:16.443Z,54.20
2018-08-09T03:32:44.500Z,54.33
2018-08-09T03:35:12.524Z,54.51
2018-08-09T03:37:40.580Z,54.60
2018-08-09T03:40:08.620Z,54.54
2018-08-09T03:42:36.688Z,54.91
2018-08-09T03:45:05.092Z,55.21
2018-08-09T03:47:33.143Z,55.37
2018-08-09T03:50:01.192Z,55.52
2018-08-09T03:52:29.243Z,55.45
2018-08-09T03:54:57.308Z,55.59
2018-08-09T03:57:25.347Z,55.01
2018-08-09T03:59:53.409Z,55.69
2018-08-09T04:02:21.453Z,55.74
2018-08-09T04:04:49.509Z,56.10
2018-08-09T04:07:17.563Z,56.34
2018-08-09T04:09:45.639Z,56.06
2018-08-09T04:12:13.692Z,56.80
2018-08-09T04:14:41.784Z,56.55
2018-08-09T04:17:17.239Z,56.17
2018-08-09T04:19:45.411Z,56.18
2018-08-09T04:22:13.452Z,56.35
2018-08-09T04:24:41.529Z,56.21
2018-08-09T04:27:09.577Z,56.28
2018-08-09T04:29:37.621Z,56.07
2018-08-09T04:32:05.660Z,56.05
2018-08-09T04:34:33.728Z,55.90
2018-08-09T04:37:01.793Z,56.05
2018-08-09T04:39:29.868Z,55.83
2018-08-09T04:41:57.924Z,56.08
2018-08-09T04:44:25.980Z,56.14
2018-08-09T04:46:54.025Z,56.35
2018-08-09T04:49:22.140Z,56.94
2018-08-09T04:51:50.128Z,56.61
2018-08-09T04:54:18.213Z,56.53
2018-08-09T04:56:46.284Z,56.67
2018-08-09T04:59:14.349Z,56.75
2018-08-09T05:01:42.380Z,56.77
2018-08-09T05:04:10.520Z,56.66
2018-08-09T05:06:38.583Z,57.02
2018-08-09T05:09:08.472Z,57.07
2018-08-09T05:11:36.568Z,57.54
2018-08-09T05:14:04.644Z,57.74
2018-08-09T05:16:32.728Z,58.43
2018-08-09T05:19:00.852Z,59.05
2018-08-09T05:21:28.953Z,59.33
2018-08-09T05:23:57.024Z,60.11
2018-08-09T05:26:25.126Z,60.12
2018-08-09T05:28:53.180Z,61.16
2018-08-09T05:31:21.321Z,61.25
2018-08-09T05:33:49.386Z,61.80
2018-08-09T05:36:17.450Z,61.86
2018-08-09T05:38:45.579Z,62.08
2018-08-09T05:41:13.681Z,62.31
2018-08-09T05:43:41.784Z,62.16
2018-08-09T05:46:09.836Z,62.11
2018-08-09T05:48:37.889Z,61.78
2018-08-09T05:51:06.068Z,61.86
2018-08-09T05:53:34.131Z,61.68
2018-08-09T05:56:02.213Z,61.51
2018-08-09T05:58:30.303Z,61.33
2018-08-09T06:00:58.364Z,61.64
2018-08-09T06:03:26.428Z,61.32
2018-08-09T06:05:54.513Z,60.79
2018-08-09T06:08:22.584Z,61.03
2018-08-09T06:10:50.648Z,60.27
2018-08-09T06:13:18.747Z,60.21
2018-08-09T06:15:46.820Z,59.55
2018-08-09T06:18:14.916Z,59.48
2018-08-09T06:20:43.004Z,59.09
2018-08-09T06:23:11.102Z,58.94
2018-08-09T06:25:39.350Z,58.59
2018-08-09T06:28:07.407Z,58.33
2018-08-09T06:30:35.476Z,58.03
2018-08-09T06:33:03.557Z,56.44
2018-08-09T06:35:31.628Z,56.26
2018-08-09T06:37:59.670Z,56.02
2018-08-09T06:40:27.744Z,54.86
2018-08-09T06:42:55.793Z,54.99
2018-08-09T06:45:23.836Z,54.91
2018-08-09T06:47:51.888Z,53.78
2018-08-09T06:50:19.941Z,52.97
2018-08-09T06:52:47.993Z,53.09
2018-08-09T06:55:16.049Z,52.93
2018-08-09T06:57:44.088Z,52.35
2018-08-09T07:00:13.249Z,52.44
2018-08-09T07:02:41.476Z,52.13
2018-08-09T07:05:09.533Z,51.63
2018-08-09T07:07:37.959Z,51.43
2018-08-09T07:10:06.657Z,50.94
2018-08-09T07:12:34.720Z,51.31
2018-08-09T07:15:02.772Z,50.83
2018-08-09T07:17:30.823Z,50.59
2018-08-09T07:19:58.900Z,49.70
2018-08-09T07:22:26.948Z,48.11
2018-08-09T07:24:55.008Z,48.68
2018-08-09T07:27:23.077Z,48.21
2018-08-09T07:29:51.152Z,47.85
2018-08-09T07:32:19.205Z,48.13
2018-08-09T07:34:47.260Z,47.95
2018-08-09T07:37:15.340Z,47.96
2018-08-09T07:39:43.475Z,47.75
2018-08-09T07:42:11.491Z,47.22
2018-08-09T07:44:39.544Z,46.90
2018-08-09T07:47:07.665Z,45.78
2018-08-09T07:49:35.712Z,46.85
2018-08-09T07:52:03.820Z,46.45
2018-08-09T07:54:31.891Z,45.22
2018-08-09T07:56:59.961Z,45.04
2018-08-09T07:59:27.995Z,44.33
2018-08-09T08:01:56.065Z,44.45
2018-08-09T08:04:24.139Z,43.37
2018-08-09T08:06:52.189Z,42.07
2018-08-09T08:09:20.222Z,43.18
2018-08-09T08:11:48.312Z,42.23
2018-08-09T08:14:16.352Z,42.19
2018-08-09T08:16:44.457Z,42.14
2018-08-09T08:19:12.524Z,41.51
2018-08-09T08:21:40.607Z,41.53
2018-08-09T08:24:08.652Z,41.13
2018-08-09T08:26:36.798Z,40.53
2018-08-09T08:29:04.836Z,40.97
2018-08-09T08:31:32.945Z,39.77
2018-08-09T08:34:01.041Z,40.21
2018-08-09T08:36:29.089Z,40.05
2018-08-09T08:38:57.119Z,39.68
2018-08-09T08:41:25.188Z,39.69
2018-08-09T08:43:53.203Z,39.59
2018-08-09T08:46:21.284Z,39.07
2018-08-09T08:48:49.316Z,38.82
2018-08-09T08:51:17.361Z,38.68
2018-08-09T08:53:45.385Z,38.46
2018-08-09T08:56:13.463Z,37.57
2018-08-09T08:58:41.538Z,36.19
2018-08-09T09:01:09.661Z,36.95
2018-08-09T09:03:37.756Z,36.41
2018-08-09T09:06:05.844Z,36.84
2018-08-09T09:08:33.917Z,36.14
2018-08-09T09:11:01.992Z,36.61
2018-08-09T09:13:30.054Z,35.97
2018-08-09T09:15:58.097Z,35.99
2018-08-09T09:18:26.193Z,35.83
2018-08-09T09:20:54.238Z,35.69
2018-08-09T09:23:22.293Z,35.45
2018-08-09T09:25:50.337Z,35.99
2018-08-09T09:28:18.436Z,35.38
2018-08-09T09:30:46.508Z,35.87
2018-08-09T09:33:14.548Z,35.60
2018-08-09T09:35:42.601Z,34.21
2018-08-09T09:38:10.666Z,33.93
2018-08-09T09:40:38.724Z,34.34
2018-08-09T09:43:06.819Z,33.67
2018-08-09T09:45:34.862Z,33.12
2018-08-09T09:48:02.916Z,33.60
2018-08-09T09:50:30.956Z,33.09
2018-08-09T09:52:59.005Z,31.37
2018-08-09T09:55:27.051Z,32.85
2018-08-09T09:57:55.119Z,31.56
2018-08-09T10:00:28.105Z,31.50
2018-08-09T10:02:56.192Z,31.74
2018-08-09T10:05:24.240Z,31.37
2018-08-09T10:07:52.413Z,30.84
2018-08-09T10:10:20.519Z,31.83
2018-08-09T10:12:48.575Z,30.95
2018-08-09T10:15:16.616Z,30.82
2018-08-09T10:17:44.697Z,30.77
2018-08-09T10:20:12.756Z,30.92
2018-08-09T10:22:40.830Z,31.65
2018-08-09T10:25:08.905Z,31.17
2018-08-09T10:27:37.165Z,30.75
2018-08-09T10:30:06.153Z,31.78
2018-08-09T10:32:34.236Z,31.90
2018-08-09T10:35:02.293Z,31.55
2018-08-09T10:37:30.372Z,31.33
2018-08-09T10:39:58.450Z,32.01
2018-08-09T10:42:26.511Z,30.39
2018-08-09T10:44:54.582Z,31.78
2018-08-09T10:47:22.665Z,31.10
2018-08-09T10:49:50.708Z,31.50
2018-08-09T10:52:18.767Z,31.61
2018-08-09T10:54:46.872Z,31.83
2018-08-09T10:57:14.948Z,32.46
2018-08-09T10:59:43.033Z,32.56
2018-08-09T11:02:11.088Z,33.00
2018-08-09T11:04:39.154Z,33.40
2018-08-09T11:07:07.325Z,32.79
2018-08-09T11:09:35.396Z,33.27
2018-08-09T11:12:03.512Z,33.81
2018-08-09T11:14:31.636Z,33.94
2018-08-09T11:16:59.732Z,34.41
2018-08-09T11:19:27.728Z,34.38
2018-08-09T11:21:55.837Z,34.41
2018-08-09T11:24:23.882Z,34.82
2018-08-09T11:26:51.924Z,34.59
2018-08-09T11:29:19.980Z,35.90
2018-08-09T11:31:48.028Z,35.36
2018-08-09T11:34:16.081Z,35.79
2018-08-09T11:36:44.143Z,35.84
2018-08-09T11:39:12.838Z,36.24
2018-08-09T11:41:40.882Z,37.21
2018-08-09T11:44:09.901Z,36.97
2018-08-09T11:46:37.939Z,37.61
2018-08-09T11:49:06.079Z,36.97
2018-08-09T11:51:34.113Z,37.88
2018-08-09T11:54:02.201Z,37.89
2018-08-09T11:56:30.290Z,38.04
2018-08-09T11:58:58.307Z,37.98
2018-08-09T12:01:26.361Z,37.11
2018-08-09T12:03:54.512Z,38.37
2018-08-09T12:06:22.571Z,37.61
2018-08-09T12:08:50.620Z,38.06
2018-08-09T12:11:18.670Z,37.81
2018-08-09T12:13:46.743Z,39.16
2018-08-09T12:16:14.804Z,38.55
2018-08-09T12:18:42.902Z,39.00
2018-08-09T12:21:10.997Z,39.59
2018-08-09T12:23:39.097Z,39.79
2018-08-09T12:26:07.151Z,38.98
2018-08-09T12:28:35.212Z,38.50
2018-08-09T12:31:03.288Z,39.02
2018-08-09T12:33:31.421Z,38.37
2018-08-09T12:35:59.519Z,38.15
2018-08-09T12:38:27.604Z,37.65
2018-08-09T12:40:55.657Z,37.12
2018-08-09T12:43:23.735Z,37.66
2018-08-09T12:45:51.806Z,36.81
2018-08-09T12:48:19.883Z,36.94
2018-08-09T12:50:48.000Z,37.03
2018-08-09T12:53:16.003Z,35.69
2018-08-09T12:55:44.096Z,36.78
2018-08-09T12:58:12.160Z,35.93
2018-08-09T13:00:40.286Z,35.86
2018-08-09T13:03:08.604Z,35.87
2018-08-09T13:05:36.675Z,35.75
2018-08-09T13:08:04.821Z,35.94
2018-08-09T13:10:32.892Z,35.99
2018-08-09T13:13:00.957Z,35.44
2018-08-09T13:15:29.031Z,35.89
2018-08-09T13:17:57.103Z,35.09
2018-08-09T13:20:25.192Z,35.00
2018-08-09T13:22:53.261Z,34.48
2018-08-09T13:25:21.337Z,34.83
2018-08-09T13:27:49.455Z,34.59
2018-08-09T13:30:17.549Z,34.85
2018-08-09T13:32:45.799Z,35.18
2018-08-09T13:35:13.871Z,34.71
2018-08-09T13:37:42.000Z,35.92
2018-08-09T13:40:10.837Z,34.71
2018-08-09T13:42:39.824Z,35.73
2018-08-09T13:45:12.188Z,35.89
2018-08-09T13:47:40.566Z,35.04
2018-08-09T13:50:09.150Z,35.89
2018-08-09T13:52:37.354Z,35.47
2018-08-09T13:55:05.688Z,35.89
2018-08-09T13:57:33.731Z,34.94
2018-08-09T14:00:01.800Z,36.13
2018-08-09T14:02:30.105Z,36.06
2018-08-09T14:04:58.167Z,35.41
2018-08-09T14:07:26.425Z,35.31
2018-08-09T14:09:54.508Z,35.44
2018-08-09T14:12:22.608Z,34.44
2018-08-09T14:14:50.696Z,34.00
2018-08-09T14:17:18.758Z,33.44
2018-08-09T14:19:46.836Z,34.19
2018-08-09T14:22:14.884Z,33.30
2018-08-09T14:24:43.034Z,33.05
2018-08-09T14:27:11.021Z,32.95
2018-08-09T14:29:39.075Z,33.49
2018-08-09T14:32:07.140Z,33.35
2018-08-09T14:34:35.231Z,32.09
2018-08-09T14:37:03.303Z,33.03
2018-08-09T14:39:31.366Z,32.46
2018-08-09T14:41:59.493Z,31.96
2018-08-09T14:44:27.520Z,31.90
2018-08-09T14:46:55.593Z,31.74
2018-08-09T14:49:23.635Z,32.40
2018-08-09T14:51:51.736Z,32.38
2018-08-09T14:54:19.791Z,32.84
2018-08-09T14:56:47.872Z,31.53
2018-08-09T14:59:15.981Z,31.67
2018-08-09T15:01:44.056Z,31.93
2018-08-09T15:04:12.104Z,32.02
2018-08-09T15:06:40.183Z,31.97
2018-08-09T15:09:10.139Z,31.96
2018-08-09T15:11:38.203Z,31.30
2018-08-09T15:14:07.003Z,31.76
2018-08-09T15:16:35.085Z,31.58
2018-08-09T15:19:03.177Z,32.03
2018-08-09T15:21:31.225Z,31.24
2018-08-09T15:23:59.291Z,31.57
2018-08-09T15:26:27.365Z,31.23
2018-08-09T15:28:55.404Z,31.61
2018-08-09T15:31:23.469Z,31.65
2018-08-09T15:33:51.517Z,31.92
2018-08-09T15:36:19.567Z,32.26
2018-08-09T15:38:47.640Z,32.36
2018-08-09T15:41:15.873Z,32.43
2018-08-09T15:43:43.933Z,31.87
2018-08-09T15:46:11.975Z,32.33
2018-08-09T15:48:40.024Z,31.93
2018-08-09T15:51:08.085Z,32.92
2018-08-09T15:53:36.129Z,32.93
2018-08-09T15:56:04.193Z,33.39
2018-08-09T15:58:32.264Z,33.60
2018-08-09T16:01:00.321Z,33.11
2018-08-09T16:03:28.414Z,33.22
2018-08-09T16:05:56.511Z,32.91
2018-08-09T16:08:24.613Z,33.21
2018-08-09T16:10:52.700Z,33.18
2018-08-09T16:13:20.933Z,33.72
2018-08-09T16:15:48.993Z,33.95
2018-08-09T16:18:17.054Z,34.86
2018-08-09T16:20:45.109Z,33.65
2018-08-09T16:23:13.191Z,33.91
2018-08-09T16:25:42.068Z,34.62
2018-08-09T16:28:10.141Z,34.39
2018-08-09T16:30:38.196Z,34.26
2018-08-09T16:33:06.688Z,34.56
2018-08-09T16:35:34.798Z,34.91
2018-08-09T16:38:02.880Z,35.46
2018-08-09T16:40:30.936Z,35.35
2018-08-09T16:42:59.005Z,35.37
2018-08-09T16:45:27.172Z,34.79
2018-08-09T16:47:55.289Z,35.40
2018-08-09T16:50:24.929Z,35.38
2018-08-09T16:52:53.136Z,35.38
2018-08-09T16:55:22.289Z,35.29
2018-08-09T16:57:50.387Z,35.21
2018-08-09T17:00:20.720Z,35.30
2018-08-09T17:02:49.053Z,34.75
2018-08-09T17:05:19.925Z,36.10
2018-08-09T17:07:48.089Z,35.01
2018-08-09T17:10:20.576Z,34.99
2018-08-09T17:12:48.699Z,34.97
2018-08-09T17:15:19.031Z,35.09
2018-08-09T17:17:47.115Z,35.52
2018-08-09T17:20:17.952Z,36.64
2018-08-09T17:22:46.057Z,40.37
2018-08-09T17:25:14.693Z,44.59
2018-08-09T17:27:44.144Z,46.96
2018-08-09T17:30:13.479Z,49.31
2018-08-09T17:32:41.860Z,51.52
2018-08-09T17:35:10.661Z,53.15
2018-08-09T17:37:39.108Z,54.53
2018-08-09T17:40:10.085Z,55.32
2018-08-09T17:42:38.117Z,56.21
2018-08-09T17:45:06.510Z,57.33
2018-08-09T17:47:34.544Z,57.93
2018-08-09T17:50:02.585Z,57.86
2018-08-09T17:52:30.760Z,58.81
2018-08-09T17:54:58.808Z,59.35
2018-08-09T17:57:26.901Z,59.41
2018-08-09T17:59:54.950Z,60.24
2018-08-09T18:02:22.988Z,59.58
2018-08-09T18:04:51.082Z,60.09
2018-08-09T18:07:19.087Z,60.61
2018-08-09T18:09:47.148Z,60.16
2018-08-09T18:12:15.652Z,60.20
2018-08-09T18:14:45.004Z,60.88
2018-08-09T18:17:13.369Z,60.98
2018-08-09T18:19:41.859Z,62.05
2018-08-09T18:22:10.641Z,61.37
2018-08-09T18:24:38.732Z,61.89
2018-08-09T18:27:07.180Z,62.27
2018-08-09T18:29:35.296Z,62.33
2018-08-09T18:32:03.352Z,61.46
2018-08-09T18:34:31.415Z,61.65
2018-08-09T18:36:59.540Z,61.90
2018-08-09T18:39:27.624Z,61.95
2018-08-09T18:41:55.672Z,61.41
2018-08-09T18:44:23.738Z,61.63
2018-08-09T18:46:51.821Z,61.94
2018-08-09T18:49:19.881Z,61.19
2018-08-09T18:51:47.971Z,61.71
2018-08-09T18:54:16.044Z,61.52
2018-08-09T18:56:44.115Z,62.23
2018-08-09T18:59:12.180Z,62.38
2018-08-09T19:01:40.248Z,62.90
2018-08-09T19:04:08.511Z,63.10
2018-08-09T19:06:36.568Z,62.66
2018-08-09T19:09:07.359Z,63.77
2018-08-09T19:11:35.424Z,63.29
2018-08-09T19:14:03.479Z,63.52
2018-08-09T19:16:31.552Z,63.82
2018-08-09T19:18:59.646Z,64.17
2018-08-09T19:21:28.012Z,64.72
2018-08-09T19:23:56.072Z,65.14
2018-08-09T19:26:24.142Z,65.67
2018-08-09T19:28:52.192Z,66.16
2018-08-09T19:31:20.292Z,65.97
2018-08-09T19:33:48.369Z,66.40
2018-08-09T19:36:16.447Z,66.85
2018-08-09T19:38:44.663Z,67.57
2018-08-09T19:41:12.637Z,67.70
2018-08-09T19:43:40.688Z,67.86
2018-08-09T19:46:08.771Z,68.47
2018-08-09T19:48:37.080Z,68.41
2018-08-09T19:51:05.164Z,68.86
2018-08-09T19:53:33.217Z,68.85
2018-08-09T19:56:01.271Z,69.09
2018-08-09T19:58:29.340Z,69.25
2018-08-09T20:00:57.424Z,69.54
2018-08-09T20:03:25.474Z,69.51
2018-08-09T20:05:53.533Z,69.65
2018-08-09T20:08:21.584Z,69.68
2018-08-09T20:10:49.642Z,69.79
2018-08-09T20:13:17.696Z,69.82
2018-08-09T20:15:45.760Z,70.14
2018-08-09T20:18:13.800Z,70.13
2018-08-09T20:20:41.856Z,70.43
2018-08-09T20:23:09.917Z,70.91
2018-08-09T20:25:37.976Z,70.84
2018-08-09T20:28:06.232Z,70.81
2018-08-09T20:30:34.325Z,71.03
2018-08-09T20:33:02.404Z,71.34
2018-08-09T20:35:30.447Z,71.54
2018-08-09T20:37:58.501Z,71.37
2018-08-09T20:40:26.576Z,71.57
2018-08-09T20:42:55.043Z,71.79
2018-08-09T20:45:23.987Z,72.01
2018-08-09T20:47:52.118Z,72.23
2018-08-09T20:50:21.911Z,72.11
2018-08-09T20:52:50.484Z,72.23
2018-08-09T20:55:18.769Z,72.55
2018-08-09T20:57:47.540Z,72.71
2018-08-09T21:00:18.302Z,73.15
2018-08-09T21:02:47.576Z,72.77
2018-08-09T21:05:30.916Z,72.82
2018-08-09T21:07:58.991Z,73.00
2018-08-09T21:10:27.352Z,73.05
2018-08-09T21:12:55.640Z,73.10
2018-08-09T21:15:23.774Z,73.10
2018-08-09T21:17:51.788Z,73.28
2018-08-09T21:20:19.860Z,73.26
2018-08-09T21:22:48.834Z,73.52
2018-08-09T21:25:16.929Z,73.42
2018-08-09T21:27:45.385Z,73.53
2018-08-09T21:30:15.597Z,73.67
2018-08-09T21:32:44.091Z,73.84
2018-08-09T21:35:12.218Z,73.82
2018-08-09T21:37:41.333Z,74.01
2018-08-09T21:40:10.707Z,73.95
2018-08-09T21:42:38.780Z,73.77
2018-08-09T21:45:11.336Z,74.05
2018-08-09T21:47:39.599Z,74.36
2018-08-09T21:50:11.119Z,74.44
2018-08-09T21:52:39.400Z,73.28
2018-08-09T21:55:07.868Z,74.57
2018-08-09T21:57:36.154Z,74.13
2018-08-09T22:00:06.167Z,74.00
2018-08-09T22:02:34.239Z,73.94
2018-08-09T22:06:05.112Z,73.77
2018-08-09T22:08:38.511Z,73.41
2018-08-09T22:11:12.551Z,74.17
2018-08-09T22:13:45.977Z,73.61
2018-08-09T22:16:19.341Z,73.92
2018-08-09T22:18:52.676Z,74.31
2018-08-09T22:22:26.110Z,73.81
2018-08-09T22:24:54.147Z,73.26
2018-08-09T22:27:22.205Z,74.03
2018-08-09T22:29:50.273Z,73.89
2018-08-09T22:32:18.360Z,74.02
2018-08-09T22:34:46.456Z,74.09
2018-08-09T22:37:14.576Z,74.00
2018-08-09T22:39:42.636Z,74.33
2018-08-09T22:42:10.748Z,73.57
2018-08-09T22:44:38.802Z,72.81
2018-08-09T22:47:06.895Z,72.48
2018-08-09T22:49:34.976Z,71.72
2018-08-09T22:52:03.058Z,70.84
2018-08-09T22:54:31.244Z,70.97
2018-08-09T22:56:59.316Z,68.65
2018-08-09T22:59:27.472Z,68.23
2018-08-09T23:01:55.552Z,67.36
2018-08-09T23:04:23.646Z,67.78
2018-08-09T23:06:51.711Z,66.53
2018-08-09T23:09:19.805Z,64.35
2018-08-09T23:11:47.897Z,63.38
2018-08-09T23:14:15.984Z,63.07
2018-08-09T23:16:44.068Z,64.32
2018-08-09T23:19:12.156Z,64.64
2018-08-09T23:21:40.224Z,64.37
2018-08-09T23:24:08.316Z,63.69
2018-08-09T23:26:36.399Z,63.54
2018-08-09T23:29:04.517Z,63.94
2018-08-09T23:31:32.624Z,62.55
2018-08-09T23:34:00.710Z,62.54
2018-08-09T23:36:28.784Z,62.57
2018-08-09T23:38:56.884Z,61.26
2018-08-09T23:41:24.956Z,61.92
2018-08-09T23:43:53.032Z,61.90
2018-08-09T23:46:21.129Z,61.92
2018-08-09T23:48:49.224Z,59.89
2018-08-09T23:51:17.320Z,60.93
2018-08-09T23:53:45.415Z,60.86
2018-08-09T23:56:13.568Z,60.62
2018-08-09T23:58:41.648Z,60.42
